Time;durP1;ratioP1;P1;durP2;ratioP2;P2;SDS_P1;SDS_P2;PMS_P1;PMS_P2;Temp;Humidity;BMP_temperature;BMP_pressure;BME280_temperature;BME280_humidity;BME280_pressure;Samples;Min_cycle;Max_cycle;Signal;HPM_P1;HPM_P2
2022/04/07 00:02:01;;;;;;;1.70;1.60;;;;;;;-143.11;100.00;65634.97;5073934;28;20190;-59
2022/04/07 00:04:27;;;;;;;2.10;1.90;;;;;;;-143.11;100.00;65634.97;5073843;28;20209;-60
2022/04/07 00:06:52;;;;;;;1.83;1.63;;;;;;;-143.11;100.00;65634.97;5074019;28;20195;-59
2022/04/07 00:09:17;;;;;;;1.80;1.53;;;;;;;-143.11;100.00;65634.97;5091797;28;20189;-60
2022/04/07 00:11:43;;;;;;;1.70;1.60;;;;;;;-143.11;100.00;65634.97;5073889;28;20243;-60
2022/04/07 00:14:08;;;;;;;3.07;1.60;;;;;;;-143.11;100.00;65634.97;5074169;28;20205;-60
2022/04/07 00:16:33;;;;;;;2.43;1.60;;;;;;;-143.11;100.00;65634.97;5074164;28;20195;-55
2022/04/07 00:18:59;;;;;;;1.80;1.57;;;;;;;-143.11;100.00;65634.97;5073782;28;20263;-65
2022/04/07 00:21:25;;;;;;;2.07;1.50;;;;;;;-143.11;100.00;65634.97;5074191;28;20260;-54
2022/04/07 00:23:51;;;;;;;2.87;1.57;;;;;;;-143.11;100.00;65634.97;5073894;28;20216;-53
2022/04/07 00:26:17;;;;;;;2.47;1.37;;;;;;;-143.11;100.00;65634.97;5073811;28;20346;-51
2022/04/07 00:28:42;;;;;;;1.70;1.37;;;;;;;-143.11;100.00;65634.97;5073669;28;20297;-52
2022/04/07 00:31:08;;;;;;;2.10;1.43;;;;;;;-143.11;100.00;65634.97;5073802;28;20199;-52
2022/04/07 00:33:34;;;;;;;1.70;1.40;;;;;;;-143.11;100.00;65634.97;5073684;28;20189;-54
2022/04/07 00:35:59;;;;;;;1.50;1.40;;;;;;;-143.11;100.00;65634.97;5074061;28;20188;-61
2022/04/07 00:38:24;;;;;;;1.37;1.27;;;;;;;-143.11;100.00;65634.97;5076862;28;20206;-65
2022/04/07 00:40:49;;;;;;;1.43;1.30;;;;;;;-143.11;100.00;65634.97;5077331;28;20190;-65
2022/04/07 00:43:32;;;;;;;1.40;1.30;;;;;;;-143.11;100.00;65634.97;5077156;28;20199;-65
2022/04/07 00:45:58;;;;;;;1.40;1.30;;;;;;;-143.11;100.00;65634.97;5076995;28;20208;-66
2022/04/07 00:48:25;;;;;;;1.50;1.30;;;;;;;-143.11;100.00;65634.97;5077246;28;20205;-65
2022/04/07 00:50:50;;;;;;;1.70;1.30;;;;;;;-143.11;100.00;65634.97;5077401;28;20271;-65
2022/04/07 00:53:17;;;;;;;1.30;1.20;;;;;;;-143.11;100.00;65634.97;5077148;28;20210;-58
2022/04/07 00:55:42;;;;;;;1.57;1.30;;;;;;;-143.11;100.00;65634.97;5077134;28;20190;-66
2022/04/07 00:58:08;;;;;;;1.40;1.20;;;;;;;-143.11;100.00;65634.97;5077191;28;20235;-60
2022/04/07 01:00:34;;;;;;;1.30;1.20;;;;;;;-143.11;100.00;65634.97;5077089;28;20233;-60
2022/04/07 01:02:59;;;;;;;1.30;1.20;;;;;;;-143.11;100.00;65634.97;5076986;28;20217;-60
2022/04/07 01:05:25;;;;;;;1.50;1.40;;;;;;;-143.11;100.00;65634.97;5077122;28;20187;-60
2022/04/07 01:07:51;;;;;;;1.23;1.13;;;;;;;-143.11;100.00;65634.97;5076868;28;20192;-59
2022/04/07 01:10:19;;;;;;;2.03;1.60;;;;;;;-143.11;100.00;65634.97;5077012;28;20257;-60
2022/04/07 01:12:44;;;;;;;1.87;1.40;;;;;;;-143.11;100.00;65634.97;5076635;28;20189;-62
2022/04/07 01:15:10;;;;;;;1.67;1.40;;;;;;;-143.11;100.00;65634.97;5076636;28;20197;-58
2022/04/07 01:17:36;;;;;;;1.33;1.23;;;;;;;-143.11;100.00;65634.97;5076500;28;20182;-58
2022/04/07 01:20:03;;;;;;;2.93;1.57;;;;;;;-143.11;100.00;65634.97;5076688;28;20247;-53
2022/04/07 01:22:29;;;;;;;2.17;1.37;;;;;;;-143.11;100.00;65634.97;5059865;28;20197;-58
2022/04/07 01:24:54;;;;;;;1.40;1.30;;;;;;;-143.11;100.00;65634.97;5076657;28;20282;-56
2022/04/07 01:27:20;;;;;;;2.30;1.40;;;;;;;-143.11;100.00;65634.97;5094548;28;20181;-57
2022/04/07 01:29:45;;;;;;;1.60;1.50;;;;;;;-143.11;100.00;65634.97;5076591;28;20185;-65
2022/04/07 01:32:17;;;;;;;1.40;1.30;;;;;;;-143.11;100.00;65634.97;5076378;28;20189;-52
2022/04/07 01:34:44;;;;;;;2.50;1.50;;;;;;;-143.11;100.00;65634.97;5076337;28;20203;-57
2022/04/07 01:37:10;;;;;;;1.30;1.20;;;;;;;-143.11;100.00;65634.97;5076397;28;20210;-57
2022/04/07 01:39:38;;;;;;;1.47;1.30;;;;;;;-143.11;100.00;65634.97;5076233;28;20182;-57
2022/04/07 01:42:05;;;;;;;1.30;1.20;;;;;;;-143.11;100.00;65634.97;5094254;28;20196;-58
2022/04/07 01:44:33;;;;;;;1.80;1.50;;;;;;;-143.11;100.00;65634.97;5076034;28;20222;-57
2022/04/07 01:46:59;;;;;;;2.40;1.50;;;;;;;-143.11;100.00;65634.97;5076149;28;20267;-57
2022/04/07 01:49:25;;;;;;;1.83;1.20;;;;;;;-143.11;100.00;65634.97;5075850;28;20242;-54
2022/04/07 01:51:50;;;;;;;2.27;1.30;;;;;;;-143.11;100.00;65634.97;5076234;28;20187;-51
2022/04/07 01:54:16;;;;;;;1.40;1.30;;;;;;;-143.11;100.00;65634.97;5076221;28;20344;-52
2022/04/07 01:56:43;;;;;;;2.07;1.37;;;;;;;-143.11;100.00;65634.97;5075783;28;20246;-52
2022/04/07 01:59:09;;;;;;;1.53;1.30;;;;;;;-143.11;100.00;65634.97;5075956;28;20186;-52
2022/04/07 02:01:35;;;;;;;2.37;1.77;;;;;;;-143.11;100.00;65634.97;5075779;28;20202;-52
2022/04/07 02:04:00;;;;;;;1.60;1.50;;;;;;;-143.11;100.00;65634.97;5075454;28;20242;-53
2022/04/07 02:06:27;;;;;;;1.90;1.30;;;;;;;-143.11;100.00;65634.97;5075632;28;20259;-62
2022/04/07 02:08:53;;;;;;;1.60;1.30;;;;;;;-143.11;100.00;65634.97;5075910;28;20183;-59
2022/04/07 02:11:18;;;;;;;1.87;1.60;;;;;;;-143.11;100.00;65634.97;5075824;28;20193;-54
2022/04/07 02:13:43;;;;;;;1.50;1.40;;;;;;;-143.11;100.00;65634.97;5075565;28;20189;-53
2022/04/07 02:16:11;;;;;;;1.97;1.30;;;;;;;-143.11;100.00;65634.97;5093703;28;20231;-52
2022/04/07 02:18:37;;;;;;;2.00;1.80;;;;;;;-143.11;100.00;65634.97;5075395;28;20189;-52
2022/04/07 02:21:03;;;;;;;2.03;1.60;;;;;;;-143.11;100.00;65634.97;5075611;28;20275;-52
2022/04/07 02:23:29;;;;;;;1.93;1.57;;;;;;;-143.11;100.00;65634.97;5075408;28;20203;-55
2022/04/07 02:25:54;;;;;;;1.70;1.60;;;;;;;-143.11;100.00;65634.97;5075184;28;20206;-65
2022/04/07 02:28:19;;;;;;;2.93;2.63;;;;;;;-143.11;100.00;65634.97;5075511;28;20187;-52
2022/04/07 02:30:45;;;;;;;1.57;1.43;;;;;;;-143.11;100.00;65634.97;5075456;28;20285;-53
2022/04/07 02:33:12;;;;;;;2.37;1.63;;;;;;;-143.11;100.00;65634.97;5075362;28;20240;-53
2022/04/07 02:35:37;;;;;;;1.57;1.47;;;;;;;-143.11;100.00;65634.97;5075427;28;20210;-54
2022/04/07 02:38:03;;;;;;;2.50;1.80;;;;;;;-143.11;100.00;65634.97;5075115;28;20198;-53
2022/04/07 02:40:28;;;;;;;2.03;1.70;;;;;;;-143.11;100.00;65634.97;5075254;28;20188;-55
2022/04/07 02:42:54;;;;;;;2.07;1.87;;;;;;;-143.11;100.00;65634.97;5075156;28;20245;-55
2022/04/07 02:45:19;;;;;;;2.70;1.67;;;;;;;-143.11;100.00;65634.97;5075247;28;20230;-60
2022/04/07 02:47:44;;;;;;;2.07;1.90;;;;;;;-143.11;100.00;65634.97;5075251;28;20182;-59
2022/04/07 02:50:10;;;;;;;3.33;2.40;;;;;;;-143.11;100.00;65634.97;5075276;28;20252;-59
2022/04/07 02:52:35;;;;;;;2.10;1.60;;;;;;;-143.11;100.00;65634.97;5074891;28;20218;-62
2022/04/07 02:55:02;;;;;;;2.23;2.03;;;;;;;-143.11;100.00;65634.97;5075108;28;20182;-59
2022/04/07 02:57:31;;;;;;;1.63;1.53;;;;;;;-143.11;100.00;65634.97;5074867;28;20192;-59
2022/04/07 02:59:58;;;;;;;1.97;1.70;;;;;;;-143.11;100.00;65634.97;5073993;28;20177;-59
2022/04/07 03:02:23;;;;;;;2.70;2.10;;;;;;;-143.11;100.00;65634.97;5074800;28;20182;-50
2022/04/07 03:04:49;;;;;;;1.60;1.50;;;;;;;-143.11;100.00;65634.97;5092719;28;20208;-61
2022/04/07 03:07:14;;;;;;;1.93;1.60;;;;;;;-143.11;100.00;65634.97;5074749;28;20181;-61
2022/04/07 03:09:40;;;;;;;1.80;1.70;;;;;;;-143.11;100.00;65634.97;5074826;28;20189;-62
2022/04/07 03:12:06;;;;;;;1.87;1.50;;;;;;;-143.11;100.00;65634.97;5074570;28;20190;-62
2022/04/07 03:14:31;;;;;;;2.33;1.50;;;;;;;-143.11;100.00;65634.97;5074638;28;20181;-62
2022/04/07 03:16:58;;;;;;;1.57;1.47;;;;;;;-143.11;100.00;65634.97;5074620;28;20174;-62
2022/04/07 03:19:23;;;;;;;1.63;1.53;;;;;;;-143.11;100.00;65634.97;5074556;28;20190;-62
2022/04/07 03:21:49;;;;;;;1.73;1.53;;;;;;;-143.11;100.00;65634.97;5074536;28;20195;-65
2022/04/07 03:24:14;;;;;;;1.57;1.47;;;;;;;-143.11;100.00;65634.97;5074930;28;20207;-59
2022/04/07 03:26:40;;;;;;;1.30;1.20;;;;;;;-143.11;100.00;65634.97;5074299;28;20189;-58
2022/04/07 03:29:05;;;;;;;1.60;1.50;;;;;;;-143.11;100.00;65634.97;5074650;28;20240;-58
2022/04/07 03:31:31;;;;;;;1.10;1.10;;;;;;;-143.11;100.00;65634.97;5074706;28;20189;-59
2022/04/07 03:33:56;;;;;;;1.50;1.27;;;;;;;-143.11;100.00;65634.97;5074822;28;20186;-59
2022/04/07 03:36:21;;;;;;;2.93;2.37;;;;;;;-143.11;100.00;65634.97;5074558;28;20180;-59
2022/04/07 03:38:48;;;;;;;1.93;1.30;;;;;;;-143.11;100.00;65634.97;5074547;28;20195;-60
2022/04/07 03:41:14;;;;;;;1.30;1.20;;;;;;;-143.11;100.00;65634.97;5074577;28;20222;-52
2022/04/07 03:43:42;;;;;;;1.43;1.20;;;;;;;-143.11;100.00;65634.97;5074160;28;20197;-60
2022/04/07 03:46:08;;;;;;;1.30;1.20;;;;;;;-143.11;100.00;65634.97;5074092;28;20191;-60
2022/04/07 03:48:33;;;;;;;1.20;1.20;;;;;;;-143.11;100.00;65634.97;5074563;28;20177;-59
2022/04/07 03:50:59;;;;;;;2.10;1.10;;;;;;;-143.11;100.00;65634.97;5074006;28;20184;-60
2022/04/07 03:53:24;;;;;;;1.23;1.13;;;;;;;-143.11;100.00;65634.97;5074363;28;20226;-59
2022/04/07 03:55:49;;;;;;;1.53;1.10;;;;;;;-143.11;100.00;65634.97;5074251;28;20189;-60
2022/04/07 03:58:15;;;;;;;1.20;1.10;;;;;;;-143.11;100.00;65634.97;5074035;28;20192;-57
2022/04/07 04:00:40;;;;;;;1.20;1.10;;;;;;;-143.11;100.00;65634.97;5074136;28;20219;-61
2022/04/07 04:03:06;;;;;;;1.10;1.00;;;;;;;-143.11;100.00;65634.97;5074011;28;20209;-62
2022/04/07 04:05:31;;;;;;;1.63;1.27;;;;;;;-143.11;100.00;65634.97;5091925;28;20185;-63
2022/04/07 04:07:57;;;;;;;2.17;1.83;;;;;;;-143.11;100.00;65634.97;5073869;28;20186;-62
2022/04/07 04:10:23;;;;;;;1.03;1.00;;;;;;;-143.11;100.00;65634.97;5073960;28;20188;-62
2022/04/07 04:12:48;;;;;;;1.00;0.93;;;;;;;-143.11;100.00;65634.97;5077562;28;20271;-62
2022/04/07 04:15:14;;;;;;;1.27;1.17;;;;;;;-143.11;100.00;65634.97;5077446;28;20257;-65
2022/04/07 04:17:39;;;;;;;1.23;1.13;;;;;;;-143.11;100.00;65634.97;5077272;28;20193;-52
2022/04/07 04:20:05;;;;;;;1.10;1.00;;;;;;;-143.11;100.00;65634.97;5077674;28;20263;-59
2022/04/07 04:22:30;;;;;;;2.47;1.00;;;;;;;-143.11;100.00;65634.97;5077648;28;20181;-58
2022/04/07 04:24:56;;;;;;;1.23;1.10;;;;;;;-143.11;100.00;65634.97;5077097;28;20226;-59
2022/04/07 04:27:21;;;;;;;1.10;1.00;;;;;;;-143.11;100.00;65634.97;5077441;28;20192;-59
2022/04/07 04:29:47;;;;;;;1.23;1.10;;;;;;;-143.11;100.00;65634.97;5077145;28;20253;-59
2022/04/07 04:32:12;;;;;;;1.10;1.00;;;;;;;-143.11;100.00;65634.97;5077319;28;20189;-58
2022/04/07 04:34:38;;;;;;;1.20;1.10;;;;;;;-143.11;100.00;65634.97;5077273;28;20203;-60
2022/04/07 04:37:03;;;;;;;2.13;1.30;;;;;;;-143.11;100.00;65634.97;5077175;28;20256;-58
2022/04/07 04:39:29;;;;;;;2.87;0.90;;;;;;;-143.11;100.00;65634.97;5077034;28;20181;-57
2022/04/07 04:41:54;;;;;;;1.53;1.40;;;;;;;-143.11;100.00;65634.97;5077218;28;20252;-57
2022/04/07 04:44:20;;;;;;;1.23;1.13;;;;;;;-143.11;100.00;65634.97;5076882;28;20205;-57
2022/04/07 04:46:45;;;;;;;1.70;1.10;;;;;;;-143.11;100.00;65634.97;5076938;28;20193;-58
2022/04/07 04:49:10;;;;;;;2.10;1.57;;;;;;;-143.11;100.00;65634.97;5076810;28;20221;-58
2022/04/07 04:51:36;;;;;;;1.17;1.07;;;;;;;-143.11;100.00;65634.97;5077040;28;20245;-58
2022/04/07 04:54:01;;;;;;;1.67;1.10;;;;;;;-143.11;100.00;65634.97;5076991;28;20188;-58
2022/04/07 04:56:27;;;;;;;2.10;1.07;;;;;;;-143.11;100.00;65634.97;5076987;28;20192;-53
2022/04/07 04:58:53;;;;;;;1.73;1.13;;;;;;;-143.11;100.00;65634.97;5076615;28;20238;-51
2022/04/07 05:01:19;;;;;;;1.00;1.00;;;;;;;-143.11;100.00;65634.97;5076597;28;20184;-53
2022/04/07 05:03:44;;;;;;;1.27;1.13;;;;;;;-143.11;100.00;65634.97;5076457;28;20200;-51
2022/04/07 05:06:09;;;;;;;2.40;1.43;;;;;;;-143.11;100.00;65634.97;5076739;28;20257;-54
2022/04/07 05:08:35;;;;;;;1.53;1.10;;;;;;;-143.11;100.00;65634.97;5076374;28;20243;-51
2022/04/07 05:11:00;;;;;;;1.33;1.20;;;;;;;-143.11;100.00;65634.97;5076950;28;20188;-69
2022/04/07 05:13:25;;;;;;;2.40;1.10;;;;;;;-143.11;100.00;65634.97;5076809;28;20190;-57
2022/04/07 05:15:51;;;;;;;1.60;1.13;;;;;;;-143.11;100.00;65634.97;5076771;28;20189;-66
2022/04/07 05:18:16;;;;;;;3.23;1.90;;;;;;;-143.11;100.00;65634.97;5076497;28;20190;-61
2022/04/07 05:20:41;;;;;;;3.80;1.40;;;;;;;-143.11;100.00;65634.97;5076067;28;20183;-62
2022/04/07 05:23:06;;;;;;;1.93;1.23;;;;;;;-143.11;100.00;65634.97;5075546;28;20200;-61
2022/04/07 05:25:32;;;;;;;1.20;1.10;;;;;;;-143.11;100.00;65634.97;5076583;28;20203;-61
2022/04/07 05:27:57;;;;;;;1.23;1.10;;;;;;;-143.11;100.00;65634.97;5094310;28;20177;-61
2022/04/07 05:30:22;;;;;;;1.20;1.10;;;;;;;-143.11;100.00;65634.97;5076303;28;20182;-52
2022/04/07 05:32:48;;;;;;;2.27;1.40;;;;;;;-143.11;100.00;65634.97;5076156;28;20188;-55
2022/04/07 05:35:15;;;;;;;1.70;1.10;;;;;;;-143.11;100.00;65634.97;5076241;28;20192;-56
2022/04/07 05:37:41;;;;;;;3.67;1.20;;;;;;;-143.11;100.00;65634.97;5076114;28;20179;-56
2022/04/07 05:40:10;;;;;;;1.57;1.20;;;;;;;-143.11;100.00;65634.97;5076098;28;20258;-56
2022/04/07 05:42:35;;;;;;;1.93;1.13;;;;;;;-143.11;100.00;65634.97;5075642;28;20192;-57
2022/04/07 05:45:01;;;;;;;1.10;1.00;;;;;;;-143.11;100.00;65634.97;5093714;28;20204;-58
2022/04/07 05:47:26;;;;;;;1.10;1.00;;;;;;;-143.11;100.00;65634.97;5093690;28;20190;-58
2022/04/07 05:49:55;;;;;;;1.23;1.13;;;;;;;-143.11;100.00;65634.97;5076031;28;20183;-60
2022/04/07 05:52:21;;;;;;;1.93;1.23;;;;;;;-143.11;100.00;65634.97;5076203;28;20180;-57
2022/04/07 05:54:46;;;;;;;2.50;1.00;;;;;;;-143.11;100.00;65634.97;5075872;28;20211;-57
2022/04/07 05:57:12;;;;;;;3.17;1.40;;;;;;;-143.11;100.00;65634.97;5075915;28;20285;-55
2022/04/07 05:59:37;;;;;;;1.80;1.60;;;;;;;-143.11;100.00;65634.97;5075901;28;20256;-55
2022/04/07 06:02:03;;;;;;;1.50;1.20;;;;;;;-143.11;100.00;65634.97;5075725;28;20180;-57
2022/04/07 06:04:29;;;;;;;1.60;1.10;;;;;;;-143.11;100.00;65634.97;5075757;28;20210;-55
2022/04/07 06:06:54;;;;;;;2.20;1.17;;;;;;;-143.11;100.00;65634.97;5075533;28;20189;-52
2022/04/07 06:09:19;;;;;;;1.93;1.00;;;;;;;-143.11;100.00;65634.97;5075492;28;20223;-53
2022/04/07 06:11:45;;;;;;;1.23;1.00;;;;;;;-143.11;100.00;65634.97;5075353;28;20188;-55
2022/04/07 06:14:10;;;;;;;3.43;1.10;;;;;;;-143.11;100.00;65634.97;5075427;28;20181;-53
2022/04/07 06:16:35;;;;;;;1.77;0.97;;;;;;;-143.11;100.00;65634.97;5075042;28;20286;-50
2022/04/07 06:19:01;;;;;;;1.03;0.97;;;;;;;-143.11;100.00;65634.97;5075433;28;20188;-56
2022/04/07 06:21:29;;;;;;;1.00;0.90;;;;;;;-143.11;100.00;65634.97;5075143;28;20195;-53
2022/04/07 06:23:56;;;;;;;0.90;0.90;;;;;;;-143.11;100.00;65634.97;5075269;28;20212;-51
2022/04/07 06:26:21;;;;;;;0.90;0.90;;;;;;;-143.11;100.00;65634.97;5075504;28;20214;-54
2022/04/07 06:28:46;;;;;;;0.90;0.90;;;;;;;-143.11;100.00;65634.97;5075704;28;20283;-65
2022/04/07 06:31:12;;;;;;;1.53;0.93;;;;;;;-143.11;100.00;65634.97;5075288;28;20188;-66
2022/04/07 06:33:37;;;;;;;1.67;0.90;;;;;;;-143.11;100.00;65634.97;5075344;28;20191;-66
2022/04/07 06:36:03;;;;;;;0.87;0.87;;;;;;;-143.11;100.00;65634.97;5075305;28;20180;-64
2022/04/07 06:38:30;;;;;;;0.97;0.90;;;;;;;-143.11;100.00;65634.97;5075213;28;20218;-64
2022/04/07 06:40:56;;;;;;;2.70;1.07;;;;;;;-143.11;100.00;65634.97;5075115;28;20180;-64
2022/04/07 06:43:22;;;;;;;1.67;1.20;;;;;;;-143.11;100.00;65634.97;5074886;28;20205;-58
2022/04/07 06:45:47;;;;;;;1.10;1.00;;;;;;;-143.11;100.00;65634.97;5075032;28;20211;-59
2022/04/07 06:48:13;;;;;;;1.47;0.90;;;;;;;-143.11;100.00;65634.97;5075084;28;20196;-59
2022/04/07 06:50:38;;;;;;;1.67;0.90;;;;;;;-143.11;100.00;65634.97;5074927;28;20184;-59
2022/04/07 06:53:04;;;;;;;1.30;1.20;;;;;;;-143.11;100.00;65634.97;5075263;28;20390;-59
2022/04/07 06:55:29;;;;;;;1.87;1.10;;;;;;;-143.11;100.00;65634.97;5075229;28;20192;-61
2022/04/07 06:58:06;;;;;;;1.47;0.80;;;;;;;-143.11;100.00;65634.97;5074960;28;20184;-60
2022/04/07 07:00:40;;;;;;;1.37;0.90;;;;;;;-143.11;100.00;65634.97;5074826;28;20188;-59
2022/04/07 07:03:05;;;;;;;1.67;0.80;;;;;;;-143.11;100.00;65634.97;5074787;28;20192;-58
2022/04/07 07:05:34;;;;;;;1.03;0.93;;;;;;;-143.11;100.00;65634.97;5074744;28;20187;-59
2022/04/07 07:08:15;;;;;;;0.87;0.80;;;;;;;-143.11;100.00;65634.97;5074653;28;20248;-59
2022/04/07 07:10:41;;;;;;;1.67;1.00;;;;;;;-143.11;100.00;65634.97;5074653;28;20184;-60
2022/04/07 07:13:07;;;;;;;2.10;0.80;;;;;;;-143.11;100.00;65634.97;5074423;28;20189;-60
2022/04/07 07:15:32;;;;;;;0.70;0.65;;;;;;;-143.11;100.00;65634.97;5074729;28;20184;-60
2022/04/07 07:17:57;;;;;;;0.75;0.75;;;;;;;-143.11;100.00;65634.97;5074555;28;20279;-60
2022/04/07 07:20:23;;;;;;;2.58;0.90;;;;;;;-143.11;100.00;65634.97;5074672;28;20267;-55
2022/04/07 07:22:48;;;;;;;1.58;0.80;;;;;;;-143.11;100.00;65634.97;5074468;28;20292;-56
2022/04/07 07:25:14;;;;;;;0.82;0.82;;;;;;;-143.11;100.00;65634.97;5092375;28;20212;-57
2022/04/07 07:27:41;;;;;;;2.85;0.80;;;;;;;-143.11;100.00;65634.97;5074575;28;20196;-57
2022/04/07 07:30:09;;;;;;;1.33;0.70;;;;;;;-143.11;100.00;65634.97;5074730;28;20196;-55
2022/04/07 07:32:42;;;;;;;1.03;0.67;;;;;;;-143.11;100.00;65634.97;5074715;28;20180;-54
2022/04/07 07:35:08;;;;;;;1.17;0.80;;;;;;;-143.11;100.00;65634.97;5074471;28;20212;-56
2022/04/07 07:37:34;;;;;;;0.80;0.80;;;;;;;-143.11;100.00;65634.97;5074560;28;20199;-56
2022/04/07 07:40:04;;;;;;;1.33;0.70;;;;;;;-143.11;100.00;65634.97;5074509;28;20223;-66
2022/04/07 07:42:30;;;;;;;2.17;0.70;;;;;;;-143.11;100.00;65634.97;5074247;28;20184;-57
2022/04/07 07:44:55;;;;;;;3.27;0.60;;;;;;;-143.11;100.00;65634.97;5074471;28;20251;-57
2022/04/07 07:47:20;;;;;;;0.97;0.70;;;;;;;-143.11;100.00;65634.97;5077640;28;20185;-57
2022/04/07 07:49:45;;;;;;;0.97;0.70;;;;;;;-143.11;100.00;65634.97;5077857;28;20219;-56
2022/04/07 07:52:11;;;;;;;4.37;0.80;;;;;;;-143.11;100.00;65634.97;5077745;28;20180;-58
2022/04/07 07:54:36;;;;;;;1.57;0.40;;;;;;;-143.11;100.00;65634.97;5077702;28;20188;-58
2022/04/07 07:57:02;;;;;;;2.43;0.73;;;;;;;-143.11;100.00;65634.97;5077449;28;20249;-65
2022/04/07 07:59:27;;;;;;;2.03;0.70;;;;;;;-143.11;100.00;65634.97;5077646;28;20191;-52
2022/04/07 08:01:52;;;;;;;2.13;1.20;;;;;;;-143.11;100.00;65634.97;5077616;28;20187;-51
2022/04/07 08:04:18;;;;;;;2.67;0.90;;;;;;;-143.11;100.00;65634.97;5077449;28;20200;-55
2022/04/07 08:06:43;;;;;;;1.53;0.70;;;;;;;-143.11;100.00;65634.97;5077418;28;20183;-55
2022/04/07 08:09:10;;;;;;;1.70;0.80;;;;;;;-143.11;100.00;65634.97;5077462;28;20192;-52
2022/04/07 08:11:36;;;;;;;4.70;1.10;;;;;;;-143.11;100.00;65634.97;5077277;28;20195;-50
2022/04/07 08:14:01;;;;;;;0.93;0.70;;;;;;;-143.11;100.00;65634.97;5077532;28;20177;-54
2022/04/07 08:16:29;;;;;;;1.70;0.80;;;;;;;-143.11;100.00;65634.97;5095361;28;20184;-61
2022/04/07 08:18:55;;;;;;;1.33;0.50;;;;;;;-143.11;100.00;65634.97;5077131;28;20184;-58
2022/04/07 08:21:20;;;;;;;1.47;0.70;;;;;;;-143.11;100.00;65634.97;5077606;28;20188;-58
2022/04/07 08:23:45;;;;;;;1.40;0.60;;;;;;;-143.11;100.00;65634.97;5077002;28;20212;-58
2022/04/07 08:26:11;;;;;;;1.80;0.70;;;;;;;-143.11;100.00;65634.97;5077189;28;20235;-58
2022/04/07 08:28:36;;;;;;;0.93;0.83;;;;;;;-143.11;100.00;65634.97;5077470;28;20177;-58
2022/04/07 08:31:01;;;;;;;2.37;0.63;;;;;;;-143.11;100.00;65634.97;5077446;28;20271;-59
2022/04/07 08:33:27;;;;;;;3.60;0.83;;;;;;;-143.11;100.00;65634.97;5095137;28;20191;-66
2022/04/07 08:35:54;;;;;;;0.80;0.80;;;;;;;-143.11;100.00;65634.97;5076980;28;20279;-56
2022/04/07 08:38:20;;;;;;;0.83;0.67;;;;;;;-143.11;100.00;65634.97;5077283;28;20198;-59
2022/04/07 08:40:50;;;;;;;1.23;0.60;;;;;;;-143.11;100.00;65634.97;5077327;28;20180;-59
2022/04/07 08:43:15;;;;;;;0.60;0.60;;;;;;;-143.11;100.00;65634.97;5077035;28;20185;-59
2022/04/07 08:45:43;;;;;;;2.37;0.80;;;;;;;-143.11;100.00;65634.97;5077173;28;21160;-60
2022/04/07 08:48:10;;;;;;;1.57;0.90;;;;;;;-143.11;100.00;65634.97;5077463;28;20185;-59
2022/04/07 08:50:39;;;;;;;1.57;0.60;;;;;;;-143.11;100.00;65634.97;5077364;28;20187;-58
2022/04/07 08:53:05;;;;;;;1.43;0.70;;;;;;;-143.11;100.00;65634.97;5076979;28;20196;-58
2022/04/07 08:55:30;;;;;;;0.80;0.80;;;;;;;-143.11;100.00;65634.97;5077364;28;20181;-59
2022/04/07 08:57:56;;;;;;;0.60;0.60;;;;;;;-143.11;100.00;65634.97;5075744;28;20192;-60
2022/04/07 09:00:21;;;;;;;1.57;0.93;;;;;;;-143.11;100.00;65634.97;5077155;28;20216;-58
2022/04/07 09:02:46;;;;;;;0.97;0.70;;;;;;;-143.11;100.00;65634.97;5076983;28;20181;-59
2022/04/07 09:05:12;;;;;;;3.33;0.97;;;;;;;-143.11;100.00;65634.97;5076790;28;20203;-59
2022/04/07 09:07:38;;;;;;;1.80;0.70;;;;;;;-143.11;100.00;65634.97;5076569;28;20188;-59
2022/04/07 09:10:05;;;;;;;1.07;0.97;;;;;;;-143.11;100.00;65634.97;5076670;28;20264;-59
2022/04/07 09:12:30;;;;;;;2.30;0.80;;;;;;;-143.11;100.00;65634.97;5076423;28;20188;-61
2022/04/07 09:14:59;;;;;;;1.97;1.00;;;;;;;-143.11;100.00;65634.97;5076627;28;20229;-56
2022/04/07 09:17:28;;;;;;;1.33;1.23;;;;;;;-143.11;100.00;65634.97;5076596;28;20214;-55
2022/04/07 09:19:53;;;;;;;2.37;1.00;;;;;;;-143.11;100.00;65634.97;5076411;28;20184;-56
2022/04/07 09:22:30;;;;;;;1.53;0.77;;;;;;;-143.11;100.00;65634.97;5076497;28;20279;-54
2022/04/07 09:24:55;;;;;;;1.17;0.80;;;;;;;-143.11;100.00;65634.97;5076433;28;20216;-56
2022/04/07 09:27:21;;;;;;;1.92;0.80;;;;;;;-143.11;100.00;65634.97;5076509;28;20177;-55
2022/04/07 09:29:47;;;;;;;1.20;0.77;;;;;;;-143.11;100.00;65634.97;5094612;28;20230;-58
2022/04/07 09:32:23;;;;;;;1.45;0.80;;;;;;;-143.11;100.00;65634.97;5076336;28;20181;-58
2022/04/07 09:35:00;;;;;;;1.33;0.53;;;;;;;-143.11;100.00;65634.97;5076216;28;20188;-58
2022/04/07 09:37:28;;;;;;;1.17;0.80;;;;;;;-143.11;100.00;65634.97;5076604;28;20180;-57
2022/04/07 09:40:02;;;;;;;1.58;0.70;;;;;;;-143.11;100.00;65634.97;5076284;28;20184;-57
2022/04/07 09:42:29;;;;;;;1.37;0.60;;;;;;;-143.11;100.00;65634.97;5076266;28;20184;-58
2022/04/07 09:45:01;;;;;;;0.70;0.60;;;;;;;-143.11;100.00;65634.97;5075929;28;20203;-57
2022/04/07 09:47:37;;;;;;;1.53;0.60;;;;;;;-143.11;100.00;65634.97;5094389;28;20180;-52
2022/04/07 09:50:04;;;;;;;0.83;0.80;;;;;;;-143.11;100.00;65634.97;5076097;28;20196;-63
2022/04/07 09:52:30;;;;;;;0.87;0.67;;;;;;;-143.11;100.00;65634.97;5076234;28;20180;-62
2022/04/07 09:55:08;;;;;;;0.90;0.70;;;;;;;-143.11;100.00;65634.97;5076211;28;20188;-61
2022/04/07 09:57:34;;;;;;;2.03;0.73;;;;;;;-143.11;100.00;65634.97;5076191;28;20204;-62
2022/04/07 10:00:02;;;;;;;0.70;0.70;;;;;;;-143.11;100.00;65634.97;5075946;28;20200;-61
2022/04/07 10:02:29;;;;;;;2.00;0.77;;;;;;;-143.11;100.00;65634.97;5075614;28;20180;-62
2022/04/07 10:04:56;;;;;;;0.97;0.63;;;;;;;-143.11;100.00;65634.97;5075843;28;20305;-59
2022/04/07 10:07:24;;;;;;;0.70;0.70;;;;;;;-143.11;100.00;65634.97;5075989;28;20181;-54
2022/04/07 10:09:51;;;;;;;2.93;0.77;;;;;;;-143.11;100.00;65634.97;5075597;28;20188;-57
2022/04/07 10:12:18;;;;;;;0.70;0.70;;;;;;;-143.11;100.00;65634.97;5075673;28;20185;-57
2022/04/07 10:14:44;;;;;;;2.17;0.80;;;;;;;-143.11;100.00;65634.97;5075516;28;20216;-57
2022/04/07 10:17:10;;;;;;;0.70;0.70;;;;;;;-143.11;100.00;65634.97;5075419;28;20279;-60
2022/04/07 10:20:08;;;;;;;1.73;1.53;;;;;;;-143.11;100.00;65634.97;5075341;28;20283;-57
2022/04/07 10:22:45;;;;;;;3.10;0.77;;;;;;;-143.11;100.00;65634.97;5055759;28;20204;-57
2022/04/07 10:25:13;;;;;;;2.67;0.70;;;;;;;-143.11;100.00;65634.97;5075675;28;20212;-66
2022/04/07 10:27:52;;;;;;;1.27;0.70;;;;;;;-143.11;100.00;65634.97;5075270;28;20231;-62
2022/04/07 10:30:18;;;;;;;3.60;1.23;;;;;;;-143.11;100.00;65634.97;5075332;28;20205;-62
2022/04/07 10:32:53;;;;;;;1.07;0.80;;;;;;;-143.11;100.00;65634.97;5075319;28;20287;-62
2022/04/07 10:35:35;;;;;;;1.20;0.77;;;;;;;-143.11;100.00;65634.97;5075290;28;20191;-62
2022/04/07 10:38:04;;;;;;;2.57;0.60;;;;;;;-143.11;100.00;65634.97;5075017;28;20192;-61
2022/04/07 10:40:34;;;;;;;1.70;0.77;;;;;;;-143.11;100.00;65634.97;5075203;28;20200;-63
2022/04/07 10:43:13;;;;;;;1.83;1.10;;;;;;;-143.11;100.00;65634.97;5075391;28;20184;-53
2022/04/07 10:45:44;;;;;;;1.30;0.90;;;;;;;-143.11;100.00;65634.97;5074873;28;20196;-61
2022/04/07 10:48:28;;;;;;;0.80;0.80;;;;;;;-143.11;100.00;65634.97;5075275;28;20180;-61
2022/04/07 10:50:57;;;;;;;1.10;1.00;;;;;;;-143.11;100.00;65634.97;5075141;28;20210;-61
2022/04/07 10:53:27;;;;;;;1.43;1.00;;;;;;;-143.11;100.00;65634.97;5075060;28;20188;-61
2022/04/07 10:55:56;;;;;;;2.00;0.70;;;;;;;-143.11;100.00;65634.97;5074789;28;20208;-61
2022/04/07 10:58:39;;;;;;;1.50;0.60;;;;;;;-143.11;100.00;65634.97;5075241;28;20192;-62
2022/04/07 11:01:05;;;;;;;0.80;0.60;;;;;;;-143.11;100.00;65634.97;5074963;28;20268;-57
2022/04/07 11:03:30;;;;;;;0.50;0.50;;;;;;;-143.11;100.00;65634.97;5074787;28;20267;-51
2022/04/07 11:06:09;;;;;;;0.60;0.60;;;;;;;-143.11;100.00;65634.97;5074907;28;20234;-51
2022/04/07 11:08:34;;;;;;;1.30;0.70;;;;;;;-143.11;100.00;65634.97;5074782;28;20208;-52